Time;durP1;ratioP1;P1;durP2;ratioP2;P2;SDS_P1;SDS_P2;PMS_P1;PMS_P2;Temp;Humidity;BMP_temperature;BMP_pressure;BME280_temperature;BME280_humidity;BME280_pressure;Samples;Min_cycle;Max_cycle;Signal;HPM_P1;HPM_P2
2022/06/26 00:00:15;;;;;;;12.27;6.43;;;;;;;;;;4982803;28;20197;-74
2022/06/26 00:02:42;;;;;;;10.23;6.60;;;;;;;;;;4985307;28;20209;-74
2022/06/26 00:05:10;;;;;;;9.33;6.00;;;;;;;;;;4987723;28;20225;-74
2022/06/26 00:07:37;;;;;;;12.57;6.20;;;;;;;;;;4985161;28;20319;-74
2022/06/26 00:10:05;;;;;;;11.03;6.80;;;;;;;;;;4986225;28;20680;-74
2022/06/26 00:12:32;;;;;;;8.40;6.33;;;;;;;;;;4987945;28;20205;-75
2022/06/26 00:15:01;;;;;;;8.77;6.30;;;;;;;;;;4990290;28;20228;-74
2022/06/26 00:17:28;;;;;;;8.50;6.90;;;;;;;;;;4986612;28;20288;-74
2022/06/26 00:19:55;;;;;;;10.53;6.60;;;;;;;;;;4988838;28;20205;-74
2022/06/26 00:22:22;;;;;;;12.97;6.83;;;;;;;;;;4987398;28;20202;-74
2022/06/26 00:24:49;;;;;;;12.67;7.10;;;;;;;;;;4985602;28;20599;-74
2022/06/26 00:27:17;;;;;;;14.27;6.80;;;;;;;;;;4986272;28;20762;-74
2022/06/26 00:29:46;;;;;;;9.80;6.80;;;;;;;;;;4990778;28;20626;-74
2022/06/26 00:32:14;;;;;;;9.57;6.90;;;;;;;;;;4988828;28;20256;-73
2022/06/26 00:34:41;;;;;;;12.90;6.37;;;;;;;;;;4989149;28;20222;-74
2022/06/26 00:37:09;;;;;;;7.87;5.97;;;;;;;;;;4986211;28;20203;-74
2022/06/26 00:39:36;;;;;;;10.80;6.57;;;;;;;;;;4990681;28;20204;-73
2022/06/26 00:42:03;;;;;;;10.00;6.27;;;;;;;;;;4988862;28;20216;-74
2022/06/26 00:44:30;;;;;;;9.20;6.20;;;;;;;;;;4988397;28;20221;-73
2022/06/26 00:46:57;;;;;;;10.53;6.33;;;;;;;;;;4990021;28;20237;-74
2022/06/26 00:49:26;;;;;;;8.67;6.40;;;;;;;;;;4986937;28;20206;-74
2022/06/26 00:51:54;;;;;;;10.30;6.60;;;;;;;;;;4985464;28;20213;-74
2022/06/26 00:54:26;;;;;;;11.23;6.57;;;;;;;;;;4984433;28;20229;-74
2022/06/26 00:56:54;;;;;;;10.73;6.10;;;;;;;;;;4987854;28;21544;-74
2022/06/26 00:59:22;;;;;;;10.73;6.10;;;;;;;;;;4984249;28;20209;-74
2022/06/26 01:01:49;;;;;;;11.07;6.40;;;;;;;;;;4988420;28;20208;-74
2022/06/26 01:04:17;;;;;;;8.67;6.27;;;;;;;;;;4981017;28;20600;-74
2022/06/26 01:06:45;;;;;;;11.70;6.00;;;;;;;;;;4990278;28;20221;-73
2022/06/26 01:09:12;;;;;;;10.63;6.60;;;;;;;;;;4983843;28;20551;-74
2022/06/26 01:11:40;;;;;;;8.90;6.20;;;;;;;;;;4986015;28;20424;-74
2022/06/26 01:14:07;;;;;;;9.97;7.33;;;;;;;;;;4983475;28;20730;-74
2022/06/26 01:16:34;;;;;;;10.63;6.40;;;;;;;;;;4982688;28;20293;-73
2022/06/26 01:19:02;;;;;;;8.03;6.30;;;;;;;;;;4988215;28;20288;-74
2022/06/26 01:21:30;;;;;;;13.30;6.80;;;;;;;;;;4984839;28;20227;-73
2022/06/26 01:23:58;;;;;;;11.33;6.60;;;;;;;;;;4982385;28;20225;-74
2022/06/26 01:26:26;;;;;;;10.33;6.30;;;;;;;;;;4984492;28;20704;-74
2022/06/26 01:28:53;;;;;;;13.23;6.67;;;;;;;;;;4982378;28;22089;-74
2022/06/26 01:31:20;;;;;;;10.53;6.57;;;;;;;;;;4990047;28;20197;-74
2022/06/26 01:33:48;;;;;;;10.63;6.83;;;;;;;;;;4988039;28;20221;-74
2022/06/26 01:36:15;;;;;;;11.50;6.70;;;;;;;;;;4988336;28;20212;-74
2022/06/26 01:38:43;;;;;;;12.40;7.07;;;;;;;;;;4982675;28;20217;-74
2022/06/26 01:41:11;;;;;;;9.27;6.17;;;;;;;;;;4987275;28;20208;-74
2022/06/26 01:43:39;;;;;;;9.63;6.37;;;;;;;;;;4985108;28;20229;-74
2022/06/26 01:46:07;;;;;;;9.40;6.17;;;;;;;;;;4983178;28;20214;-73
2022/06/26 01:48:35;;;;;;;8.97;6.57;;;;;;;;;;4984162;28;20739;-74
2022/06/26 01:51:03;;;;;;;10.63;6.43;;;;;;;;;;4985165;28;20197;-75
2022/06/26 01:53:30;;;;;;;11.57;7.03;;;;;;;;;;4985419;28;20702;-75
2022/06/26 01:55:57;;;;;;;8.03;6.33;;;;;;;;;;4985052;28;20234;-75
2022/06/26 01:58:26;;;;;;;9.97;6.90;;;;;;;;;;4987394;28;20300;-75
2022/06/26 02:00:54;;;;;;;9.20;7.03;;;;;;;;;;4986454;28;20205;-76
2022/06/26 02:03:22;;;;;;;15.60;7.33;;;;;;;;;;4984176;28;20206;-75
2022/06/26 02:05:49;;;;;;;10.27;6.77;;;;;;;;;;4986845;28;20575;-76
2022/06/26 02:08:17;;;;;;;8.67;6.70;;;;;;;;;;4980949;28;20249;-76
2022/06/26 02:13:37;;;;;;;12.77;7.23;;;;;;;;;;4984040;28;20223;-74
2022/06/26 02:16:04;;;;;;;15.37;7.93;;;;;;;;;;4982622;28;20784;-76
2022/06/26 02:18:31;;;;;;;10.23;7.10;;;;;;;;;;4982394;28;20212;-75
2022/06/26 02:20:59;;;;;;;9.73;6.77;;;;;;;;;;4985178;28;20217;-75
2022/06/26 02:23:26;;;;;;;9.60;7.13;;;;;;;;;;4978299;28;20229;-75
2022/06/26 02:25:53;;;;;;;9.70;7.03;;;;;;;;;;4986541;28;20302;-75
2022/06/26 02:28:20;;;;;;;10.17;7.03;;;;;;;;;;4987415;28;20221;-75
2022/06/26 02:30:49;;;;;;;15.10;7.67;;;;;;;;;;4984016;28;20611;-75
2022/06/26 02:33:16;;;;;;;12.87;7.37;;;;;;;;;;4982942;28;20206;-76
2022/06/26 02:35:43;;;;;;;11.23;7.67;;;;;;;;;;4982044;28;20309;-75
2022/06/26 02:38:11;;;;;;;11.77;6.90;;;;;;;;;;4986735;28;20591;-75
2022/06/26 02:40:38;;;;;;;8.77;6.47;;;;;;;;;;4982120;28;20576;-74
2022/06/26 02:43:05;;;;;;;11.77;7.03;;;;;;;;;;4988079;28;20752;-75
2022/06/26 02:45:32;;;;;;;9.93;6.53;;;;;;;;;;4982142;28;20207;-75
2022/06/26 02:48:01;;;;;;;13.63;6.63;;;;;;;;;;4986568;28;20751;-75
2022/06/26 02:50:28;;;;;;;11.13;7.20;;;;;;;;;;4984596;28;20202;-74
2022/06/26 02:52:55;;;;;;;9.33;6.87;;;;;;;;;;4984342;28;20658;-75
2022/06/26 02:55:22;;;;;;;9.47;6.77;;;;;;;;;;4984696;28;20251;-75
2022/06/26 02:57:49;;;;;;;7.90;6.37;;;;;;;;;;4986241;28;20599;-75
2022/06/26 03:00:17;;;;;;;8.80;6.57;;;;;;;;;;4982483;28;20212;-75
2022/06/26 03:02:44;;;;;;;9.00;6.87;;;;;;;;;;4984447;28;20824;-75
2022/06/26 03:05:12;;;;;;;9.13;6.33;;;;;;;;;;4982853;28;20232;-75
2022/06/26 03:07:40;;;;;;;9.13;6.37;;;;;;;;;;4982904;28;20620;-75
2022/06/26 03:10:07;;;;;;;10.23;6.73;;;;;;;;;;4987690;28;22483;-74
2022/06/26 03:12:34;;;;;;;10.60;6.70;;;;;;;;;;4983469;28;20582;-73
2022/06/26 03:15:02;;;;;;;8.17;6.27;;;;;;;;;;4983656;28;20618;-75
2022/06/26 03:17:30;;;;;;;12.27;6.17;;;;;;;;;;4986431;28;20244;-75
2022/06/26 03:19:57;;;;;;;8.97;5.93;;;;;;;;;;4984745;28;20205;-74
2022/06/26 03:22:25;;;;;;;9.70;6.20;;;;;;;;;;4983678;28;20211;-75
2022/06/26 03:24:52;;;;;;;9.50;5.80;;;;;;;;;;4987261;28;20236;-74
2022/06/26 03:27:20;;;;;;;8.73;5.87;;;;;;;;;;4984419;28;20252;-75
2022/06/26 03:29:47;;;;;;;8.57;5.53;;;;;;;;;;4988206;28;20212;-75
2022/06/26 03:32:14;;;;;;;8.43;5.70;;;;;;;;;;4983166;28;20209;-75
2022/06/26 03:34:41;;;;;;;7.57;5.87;;;;;;;;;;4984953;28;20731;-75
2022/06/26 03:37:08;;;;;;;8.90;5.47;;;;;;;;;;4983216;28;20713;-75
2022/06/26 03:39:37;;;;;;;9.53;5.63;;;;;;;;;;4985912;28;20204;-74
2022/06/26 03:42:04;;;;;;;7.60;6.17;;;;;;;;;;4984649;28;20205;-74
2022/06/26 03:44:32;;;;;;;6.90;5.67;;;;;;;;;;4985348;28;20225;-75
2022/06/26 03:47:02;;;;;;;7.73;5.80;;;;;;;;;;4987170;28;20279;-75
2022/06/26 03:49:29;;;;;;;7.93;6.07;;;;;;;;;;4989063;28;20204;-75
2022/06/26 03:51:56;;;;;;;7.97;5.67;;;;;;;;;;4991243;28;20213;-75
2022/06/26 03:54:25;;;;;;;8.23;5.40;;;;;;;;;;4989200;28;20233;-75
2022/06/26 03:56:54;;;;;;;11.27;5.30;;;;;;;;;;4990803;28;20275;-75
2022/06/26 03:59:21;;;;;;;7.80;4.80;;;;;;;;;;4987317;28;20300;-75
2022/06/26 04:01:48;;;;;;;6.33;4.40;;;;;;;;;;4989063;28;20200;-74
2022/06/26 04:04:15;;;;;;;7.53;3.80;;;;;;;;;;4987062;28;20229;-75
2022/06/26 04:06:42;;;;;;;7.10;3.93;;;;;;;;;;4992867;28;20206;-74
2022/06/26 04:09:09;;;;;;;6.30;3.93;;;;;;;;;;4989076;28;20207;-74
2022/06/26 04:11:36;;;;;;;7.47;3.80;;;;;;;;;;4986141;28;20688;-75
2022/06/26 04:14:05;;;;;;;4.77;3.60;;;;;;;;;;4986892;28;20591;-75
2022/06/26 04:16:32;;;;;;;4.77;3.50;;;;;;;;;;4988470;28;20201;-75
2022/06/26 04:18:59;;;;;;;6.73;3.37;;;;;;;;;;4985746;28;20698;-76
2022/06/26 04:21:26;;;;;;;9.03;3.20;;;;;;;;;;4990430;28;20201;-75
2022/06/26 04:23:53;;;;;;;4.43;3.50;;;;;;;;;;4987716;28;20316;-76
2022/06/26 04:26:20;;;;;;;4.60;3.00;;;;;;;;;;4989086;28;20413;-75
2022/06/26 04:28:48;;;;;;;3.27;2.77;;;;;;;;;;4988852;28;20222;-75
2022/06/26 04:31:16;;;;;;;3.57;2.60;;;;;;;;;;4988344;28;20207;-75
2022/06/26 04:33:44;;;;;;;4.17;2.80;;;;;;;;;;4988926;28;20226;-75
2022/06/26 04:36:12;;;;;;;6.13;3.20;;;;;;;;;;4988252;28;20204;-74
2022/06/26 04:38:39;;;;;;;6.03;3.17;;;;;;;;;;4984739;28;20207;-75
2022/06/26 04:43:47;;;;;;;4.07;3.20;;;;;;;;;;4986359;28;20308;-75
2022/06/26 04:46:16;;;;;;;4.83;3.07;;;;;;;;;;4986721;28;20212;-75
2022/06/26 04:48:43;;;;;;;7.13;3.30;;;;;;;;;;4987845;28;20400;-74
2022/06/26 04:51:10;;;;;;;4.53;3.17;;;;;;;;;;4989393;28;20660;-76
2022/06/26 04:53:38;;;;;;;9.73;3.20;;;;;;;;;;4983227;28;20241;-75
2022/06/26 04:56:06;;;;;;;4.33;3.17;;;;;;;;;;4983669;28;20688;-76
2022/06/26 04:58:33;;;;;;;4.60;3.30;;;;;;;;;;4986973;28;20193;-74
2022/06/26 05:01:02;;;;;;;4.60;3.47;;;;;;;;;;4986777;28;20205;-75
2022/06/26 05:03:30;;;;;;;6.27;3.83;;;;;;;;;;4985797;28;20692;-75
2022/06/26 05:05:58;;;;;;;5.20;3.80;;;;;;;;;;4985094;28;20262;-75
2022/06/26 05:08:25;;;;;;;8.90;3.10;;;;;;;;;;4986145;28;20233;-74
2022/06/26 05:10:52;;;;;;;4.57;3.50;;;;;;;;;;4989319;28;20212;-75
2022/06/26 05:13:19;;;;;;;4.60;3.53;;;;;;;;;;4983665;28;20291;-74
2022/06/26 05:15:47;;;;;;;5.03;3.00;;;;;;;;;;4987486;28;20201;-74
2022/06/26 05:18:14;;;;;;;5.10;2.83;;;;;;;;;;4986367;28;20395;-75
2022/06/26 05:20:43;;;;;;;5.70;2.90;;;;;;;;;;4985701;28;20676;-75
2022/06/26 05:23:11;;;;;;;6.93;3.20;;;;;;;;;;4989279;28;20572;-75
2022/06/26 05:25:39;;;;;;;3.83;2.70;;;;;;;;;;4991522;28;20244;-73
2022/06/26 05:28:07;;;;;;;4.20;3.00;;;;;;;;;;4991269;28;20285;-75
2022/06/26 05:30:34;;;;;;;5.60;2.80;;;;;;;;;;4989717;28;20213;-75
2022/06/26 05:33:01;;;;;;;3.67;3.00;;;;;;;;;;4990458;28;20205;-75
2022/06/26 05:35:28;;;;;;;3.43;2.70;;;;;;;;;;4990604;28;20251;-75
2022/06/26 05:37:57;;;;;;;3.53;2.83;;;;;;;;;;4987815;28;20205;-75
2022/06/26 05:40:24;;;;;;;7.13;2.70;;;;;;;;;;4985593;28;20198;-75
2022/06/26 05:42:54;;;;;;;3.63;2.70;;;;;;;;;;4988538;28;20292;-75
2022/06/26 05:45:21;;;;;;;6.03;2.80;;;;;;;;;;4987694;28;20225;-74
2022/06/26 05:47:48;;;;;;;5.33;2.70;;;;;;;;;;4988432;28;20315;-75
2022/06/26 05:50:16;;;;;;;5.57;2.87;;;;;;;;;;4988432;28;20201;-75
2022/06/26 05:52:43;;;;;;;7.33;2.40;;;;;;;;;;4987040;28;20214;-74
2022/06/26 05:55:11;;;;;;;4.80;2.40;;;;;;;;;;4986184;28;20250;-75
2022/06/26 05:57:38;;;;;;;2.80;2.00;;;;;;;;;;4990705;28;20199;-76
2022/06/26 06:00:07;;;;;;;2.03;1.83;;;;;;;;;;4986325;28;20311;-75
2022/06/26 06:02:34;;;;;;;4.60;1.87;;;;;;;;;;4986470;28;20292;-75
2022/06/26 06:05:01;;;;;;;2.50;1.57;;;;;;;;;;4990742;28;20221;-75
2022/06/26 06:07:28;;;;;;;2.00;1.10;;;;;;;;;;4981157;28;20200;-75
2022/06/26 06:09:56;;;;;;;4.10;1.10;;;;;;;;;;4989680;28;20209;-75
2022/06/26 06:12:24;;;;;;;6.13;1.10;;;;;;;;;;4985044;28;20209;-75
2022/06/26 06:14:51;;;;;;;1.50;1.20;;;;;;;;;;4984413;28;20705;-76
2022/06/26 06:17:37;;;;;;;1.50;0.87;;;;;;;;;;4985268;28;20534;-76
2022/06/26 06:20:04;;;;;;;3.00;1.00;;;;;;;;;;4985544;28;20217;-75
2022/06/26 06:22:32;;;;;;;1.67;0.90;;;;;;;;;;4980640;28;20649;-75
2022/06/26 06:24:59;;;;;;;2.30;1.00;;;;;;;;;;4987719;28;20721;-75
2022/06/26 06:27:27;;;;;;;3.80;1.10;;;;;;;;;;4987953;28;20205;-75
2022/06/26 06:29:54;;;;;;;1.30;0.70;;;;;;;;;;4983739;28;20216;-74
2022/06/26 06:32:22;;;;;;;2.00;0.90;;;;;;;;;;4988036;28;20212;-75
2022/06/26 06:34:49;;;;;;;3.47;0.83;;;;;;;;;;4984893;28;20225;-74
2022/06/26 06:37:16;;;;;;;2.47;0.90;;;;;;;;;;4988933;28;20206;-76
2022/06/26 06:39:43;;;;;;;2.03;0.90;;;;;;;;;;4982219;28;20293;-75
2022/06/26 06:42:10;;;;;;;1.93;0.90;;;;;;;;;;4986352;28;20213;-75
2022/06/26 06:44:39;;;;;;;1.80;0.93;;;;;;;;;;4985371;28;20221;-74
2022/06/26 06:47:06;;;;;;;1.53;1.10;;;;;;;;;;4986114;28;20656;-75
2022/06/26 06:49:33;;;;;;;1.97;1.07;;;;;;;;;;4983175;28;20223;-74
2022/06/26 06:52:01;;;;;;;1.97;1.03;;;;;;;;;;4983207;28;20213;-75
2022/06/26 06:54:28;;;;;;;2.20;1.20;;;;;;;;;;4987227;28;20233;-74
2022/06/26 06:56:55;;;;;;;3.80;0.90;;;;;;;;;;4981421;28;20666;-75
2022/06/26 06:59:22;;;;;;;1.67;0.83;;;;;;;;;;4985275;28;20208;-74
2022/06/26 07:01:51;;;;;;;2.57;1.10;;;;;;;;;;4982796;28;20771;-74
2022/06/26 07:04:18;;;;;;;2.90;1.00;;;;;;;;;;4980383;28;20224;-74
2022/06/26 07:06:46;;;;;;;3.60;1.00;;;;;;;;;;4983619;28;20209;-74
2022/06/26 07:09:13;;;;;;;3.03;0.97;;;;;;;;;;4984506;28;20221;-73
2022/06/26 07:11:40;;;;;;;4.78;1.10;;;;;;;;;;4982110;28;20216;-74
2022/06/26 07:14:07;;;;;;;1.38;1.20;;;;;;;;;;4987197;28;20228;-74
2022/06/26 07:16:35;;;;;;;1.40;1.10;;;;;;;;;;4982926;28;20739;-74
2022/06/26 07:19:03;;;;;;;4.07;1.20;;;;;;;;;;4988743;28;21124;-74
2022/06/26 07:21:31;;;;;;;1.20;1.10;;;;;;;;;;4984822;28;20202;-74
2022/06/26 07:23:58;;;;;;;4.20;1.40;;;;;;;;;;4982913;28;20236;-74
2022/06/26 07:26:25;;;;;;;1.40;1.30;;;;;;;;;;4983732;28;20284;-74
2022/06/26 07:28:52;;;;;;;2.57;1.60;;;;;;;;;;4979720;28;20608;-73
2022/06/26 07:31:19;;;;;;;3.30;1.40;;;;;;;;;;4983106;28;20213;-73
2022/06/26 07:36:33;;;;;;;3.97;1.40;;;;;;;;;;4984210;28;20573;-74
2022/06/26 07:39:01;;;;;;;1.90;1.57;;;;;;;;;;4983105;28;20198;-74
2022/06/26 07:41:28;;;;;;;3.93;1.60;;;;;;;;;;4983771;28;20264;-75
2022/06/26 07:43:56;;;;;;;2.40;1.70;;;;;;;;;;4991477;28;20291;-74
2022/06/26 07:46:23;;;;;;;1.93;1.50;;;;;;;;;;4985214;28;20217;-74
2022/06/26 07:48:51;;;;;;;1.87;1.47;;;;;;;;;;4986855;28;20221;-74
2022/06/26 07:51:18;;;;;;;2.93;1.77;;;;;;;;;;4980087;28;20200;-74
2022/06/26 07:53:46;;;;;;;3.03;1.73;;;;;;;;;;4977904;28;20741;-74
2022/06/26 07:56:14;;;;;;;3.33;1.97;;;;;;;;;;4982841;28;20229;-74
2022/06/26 07:58:41;;;;;;;2.10;1.80;;;;;;;;;;4982405;28;20204;-74
2022/06/26 08:01:08;;;;;;;2.40;1.73;;;;;;;;;;4984328;28;20207;-74
2022/06/26 08:03:35;;;;;;;3.53;1.70;;;;;;;;;;4986218;28;20229;-74
2022/06/26 08:06:02;;;;;;;3.17;1.90;;;;;;;;;;4981283;28;20239;-74
2022/06/26 08:08:29;;;;;;;4.27;1.53;;;;;;;;;;4983276;28;20220;-74
2022/06/26 08:10:58;;;;;;;3.25;1.92;;;;;;;;;;4982437;28;20213;-74
2022/06/26 08:13:25;;;;;;;3.63;1.98;;;;;;;;;;4981852;28;20585;-75
2022/06/26 08:15:52;;;;;;;2.47;2.00;;;;;;;;;;4980869;28;22273;-74
2022/06/26 08:18:20;;;;;;;5.68;2.00;;;;;;;;;;4979699;28;21229;-74
2022/06/26 08:20:47;;;;;;;2.65;2.00;;;;;;;;;;4986487;28;20301;-74
2022/06/26 08:23:14;;;;;;;2.92;2.25;;;;;;;;;;4986818;28;20229;-74
2022/06/26 08:25:41;;;;;;;3.40;2.45;;;;;;;;;;4984440;28;20211;-74
2022/06/26 08:28:10;;;;;;;3.15;2.60;;;;;;;;;;4985327;28;20209;-74
2022/06/26 08:30:37;;;;;;;3.28;2.30;;;;;;;;;;4985990;28;20210;-74
2022/06/26 08:33:04;;;;;;;3.22;2.80;;;;;;;;;;4986765;28;20509;-74
2022/06/26 08:35:31;;;;;;;3.67;2.70;;;;;;;;;;4991061;28;20221;-74
2022/06/26 08:37:58;;;;;;;3.50;2.90;;;;;;;;;;4990691;28;20205;-74
2022/06/26 08:40:26;;;;;;;5.53;2.88;;;;;;;;;;4991055;28;20217;-74
2022/06/26 08:42:53;;;;;;;3.50;3.15;;;;;;;;;;4991700;28;20672;-74
2022/06/26 08:45:22;;;;;;;7.73;3.37;;;;;;;;;;4988176;28;20241;-74
2022/06/26 08:47:50;;;;;;;4.83;3.20;;;;;;;;;;4988096;28;20205;-74
2022/06/26 08:50:19;;;;;;;3.73;3.43;;;;;;;;;;4987355;28;20596;-74
2022/06/26 08:52:47;;;;;;;4.27;3.83;;;;;;;;;;4987089;28;20673;-74
2022/06/26 08:55:15;;;;;;;5.83;4.30;;;;;;;;;;4992619;28;20671;-74
2022/06/26 08:57:46;;;;;;;5.00;3.70;;;;;;;;;;4988569;28;20219;-74
2022/06/26 09:00:14;;;;;;;5.87;4.50;;;;;;;;;;4993778;28;20197;-74
2022/06/26 09:02:43;;;;;;;4.33;3.37;;;;;;;;;;4984610;28;20220;-74
2022/06/26 09:05:11;;;;;;;4.67;4.00;;;;;;;;;;4986502;28;20245;-74
2022/06/26 09:07:47;;;;;;;5.67;3.93;;;;;;;;;;4980357;28;20212;-73
2022/06/26 09:10:18;;;;;;;4.97;3.57;;;;;;;;;;4984457;28;20244;-74
2022/06/26 09:12:51;;;;;;;4.50;3.40;;;;;;;;;;4985274;28;20212;-73
2022/06/26 09:15:19;;;;;;;4.47;3.80;;;;;;;;;;4979093;28;20226;-74
2022/06/26 09:18:04;;;;;;;8.07;4.00;;;;;;;;;;4985339;28;20739;-74
2022/06/26 09:20:32;;;;;;;10.30;4.47;;;;;;;;;;4985446;28;20440;-75
2022/06/26 09:23:00;;;;;;;4.90;3.83;;;;;;;;;;4985321;28;20281;-75
2022/06/26 09:25:37;;;;;;;6.53;4.67;;;;;;;;;;4985116;28;20236;-75
2022/06/26 09:28:09;;;;;;;6.53;4.50;;;;;;;;;;4983567;28;20200;-75
2022/06/26 09:30:46;;;;;;;5.03;3.97;;;;;;;;;;4983183;28;20575;-75
2022/06/26 09:33:15;;;;;;;5.07;4.07;;;;;;;;;;4986730;28;20215;-75
2022/06/26 09:35:42;;;;;;;7.50;4.23;;;;;;;;;;4985541;28;21503;-75
2022/06/26 09:38:09;;;;;;;5.40;4.27;;;;;;;;;;4979264;28;20209;-75
2022/06/26 09:40:36;;;;;;;6.63;4.13;;;;;;;;;;4987322;28;20295;-75
2022/06/26 09:43:03;;;;;;;5.33;4.40;;;;;;;;;;4986316;28;20719;-75
2022/06/26 09:45:39;;;;;;;5.63;4.33;;;;;;;;;;4988340;28;20697;-74
2022/06/26 09:48:08;;;;;;;4.90;4.03;;;;;;;;;;4986555;28;20562;-75
2022/06/26 09:50:37;;;;;;;4.60;3.90;;;;;;;;;;4983869;28;20264;-75
2022/06/26 09:53:05;;;;;;;4.20;3.80;;;;;;;;;;4980048;28;20579;-75
2022/06/26 09:55:32;;;;;;;7.37;3.70;;;;;;;;;;4977701;28;20240;-75
2022/06/26 09:58:00;;;;;;;5.43;3.77;;;;;;;;;;4979154;28;20291;-75
2022/06/26 10:00:29;;;;;;;6.57;3.60;;;;;;;;;;4979793;28;20235;-74
2022/06/26 10:08:26;;;;;;;4.63;3.50;;;;;;;;;;4983369;28;20647;-75
2022/06/26 10:10:54;;;;;;;5.67;3.10;;;;;;;;;;4982895;28;20203;-75
2022/06/26 10:13:24;;;;;;;3.47;2.90;;;;;;;;;;4977475;28;20209;-75
2022/06/26 10:15:56;;;;;;;4.43;2.90;;;;;;;;;;4979039;28;20205;-76
2022/06/26 10:18:30;;;;;;;3.20;2.80;;;;;;;;;;4986661;28;20213;-74
2022/06/26 10:20:59;;;;;;;6.17;2.80;;;;;;;;;;4988598;28;20206;-75
2022/06/26 10:23:33;;;;;;;4.17;3.20;;;;;;;;;;4988119;28;20213;-74
2022/06/26 10:26:11;;;;;;;7.47;3.10;;;;;;;;;;4987670;28;20240;-76
2022/06/26 10:28:38;;;;;;;5.37;3.23;;;;;;;;;;4989449;28;20590;-74
2022/06/26 10:31:07;;;;;;;4.37;2.90;;;;;;;;;;4987107;28;20205;-74
2022/06/26 10:33:35;;;;;;;3.33;2.93;;;;;;;;;;4988909;28;20221;-74
2022/06/26 10:36:04;;;;;;;3.60;2.77;;;;;;;;;;4988651;28;20217;-75
2022/06/26 10:38:31;;;;;;;3.57;2.80;;;;;;;;;;4993886;28;20651;-75
2022/06/26 10:44:01;;;;;;;3.77;2.90;;;;;;;;;;4991341;28;20220;-75
2022/06/26 10:46:35;;;;;;;3.27;2.73;;;;;;;;;;4984952;28;20217;-75
2022/06/26 10:49:02;;;;;;;4.07;3.20;;;;;;;;;;4989631;28;20231;-75
2022/06/26 10:51:32;;;;;;;4.27;3.23;;;;;;;;;;4988288;28;20205;-76
2022/06/26 10:53:59;;;;;;;3.47;2.97;;;;;;;;;;4986346;28;20348;-77
2022/06/26 10:56:26;;;;;;;5.07;3.20;;;;;;;;;;4979308;28;20588;-75
2022/06/26 10:59:00;;;;;;;4.33;3.10;;;;;;;;;;4975986;28;20705;-76
2022/06/26 11:01:28;;;;;;;5.60;3.13;;;;;;;;;;4986143;28;20782;-76
2022/06/26 11:03:55;;;;;;;7.10;2.90;;;;;;;;;;4979468;28;20272;-76
2022/06/26 11:06:26;;;;;;;4.87;2.60;;;;;;;;;;4983298;28;20769;-75
2022/06/26 11:08:56;;;;;;;5.57;2.90;;;;;;;;;;4985103;28;20292;-75
2022/06/26 11:11:25;;;;;;;4.00;2.90;;;;;;;;;;4983166;28;20208;-75
2022/06/26 11:13:53;;;;;;;3.40;2.80;;;;;;;;;;4980282;28;20363;-76
2022/06/26 11:16:29;;;;;;;3.60;3.07;;;;;;;;;;4983368;28;20281;-77
2022/06/26 11:18:56;;;;;;;3.17;2.80;;;;;;;;;;4984149;28;20205;-75
2022/06/26 11:21:23;;;;;;;4.03;2.70;;;;;;;;;;4992372;28;20289;-75
2022/06/26 11:23:51;;;;;;;3.43;3.00;;;;;;;;;;4987662;28;20331;-77
2022/06/26 11:26:20;;;;;;;4.73;3.07;;;;;;;;;;4987812;28;20224;-77
2022/06/26 11:28:54;;;;;;;3.60;2.87;;;;;;;;;;4985670;28;20587;-76
2022/06/26 11:31:22;;;;;;;6.27;2.87;;;;;;;;;;4988400;28;20196;-75
2022/06/26 11:33:49;;;;;;;3.07;2.67;;;;;;;;;;4989530;28;20924;-76
2022/06/26 11:36:18;;;;;;;3.13;2.77;;;;;;;;;;4996062;28;20294;-77
2022/06/26 11:38:48;;;;;;;4.70;2.67;;;;;;;;;;4989315;28;20327;-76
2022/06/26 11:41:15;;;;;;;3.37;2.70;;;;;;;;;;4987245;28;20208;-74
2022/06/26 11:43:47;;;;;;;3.27;2.80;;;;;;;;;;4983346;28;20722;-75
2022/06/26 11:46:14;;;;;;;4.37;2.67;;;;;;;;;;4987631;28;20616;-77
2022/06/26 11:48:41;;;;;;;5.23;2.90;;;;;;;;;;4984883;28;20205;-77
2022/06/26 11:51:09;;;;;;;2.90;2.60;;;;;;;;;;4989884;28;20225;-75
2022/06/26 11:53:36;;;;;;;7.10;2.67;;;;;;;;;;4980161;28;20236;-76
2022/06/26 11:56:05;;;;;;;3.80;2.30;;;;;;;;;;4977397;28;20842;-74
2022/06/26 11:58:34;;;;;;;3.73;2.60;;;;;;;;;;4988479;28;20210;-76
2022/06/26 12:01:06;;;;;;;3.00;2.70;;;;;;;;;;4976549;28;20309;-75
2022/06/26 12:03:33;;;;;;;4.10;2.20;;;;;;;;;;4982130;28;20224;-74
2022/06/26 12:06:00;;;;;;;4.43;2.20;;;;;;;;;;4985267;28;20209;-76
2022/06/26 12:08:30;;;;;;;4.27;2.20;;;;;;;;;;4989648;28;20283;-74
2022/06/26 12:10:57;;;;;;;2.73;2.40;;;;;;;;;;4991497;28;20287;-76
2022/06/26 12:13:29;;;;;;;2.67;2.30;;;;;;;;;;4983851;28;20206;-76
2022/06/26 12:16:01;;;;;;;3.10;2.30;;;;;;;;;;4982804;28;20630;-75
2022/06/26 12:18:30;;;;;;;2.97;2.03;;;;;;;;;;4989173;28;20306;-75
2022/06/26 12:20:57;;;;;;;2.47;2.20;;;;;;;;;;4987677;28;20207;-75
2022/06/26 12:23:32;;;;;;;4.23;2.40;;;;;;;;;;4980318;28;20686;-74
2022/06/26 12:26:05;;;;;;;3.03;2.10;;;;;;;;;;4980622;28;20288;-76
2022/06/26 12:28:32;;;;;;;3.90;2.00;;;;;;;;;;4985918;28;20214;-76
2022/06/26 12:31:00;;;;;;;5.03;1.90;;;;;;;;;;4986357;28;20225;-75
2022/06/26 12:33:27;;;;;;;4.60;2.10;;;;;;;;;;4980250;28;20632;-75
2022/06/26 12:35:56;;;;;;;2.13;1.80;;;;;;;;;;4984574;28;20290;-73
2022/06/26 12:38:27;;;;;;;4.10;2.30;;;;;;;;;;4980859;28;20548;-75
2022/06/26 12:40:54;;;;;;;4.90;2.10;;;;;;;;;;4981652;28;20209;-76
2022/06/26 12:43:21;;;;;;;3.77;2.00;;;;;;;;;;4979532;28;20318;-75
2022/06/26 12:45:48;;;;;;;1.80;1.63;;;;;;;;;;4988176;28;20672;-75
2022/06/26 12:48:15;;;;;;;3.80;1.90;;;;;;;;;;4982385;28;20297;-76
2022/06/26 12:50:42;;;;;;;2.70;1.93;;;;;;;;;;4983189;28;20315;-76
2022/06/26 12:53:11;;;;;;;2.00;1.80;;;;;;;;;;4983497;28;20201;-74
2022/06/26 12:55:38;;;;;;;2.27;1.70;;;;;;;;;;4983366;28;20210;-75
2022/06/26 12:58:06;;;;;;;5.37;2.13;;;;;;;;;;4985566;28;20810;-74
2022/06/26 13:00:33;;;;;;;3.03;1.80;;;;;;;;;;4989803;28;20826;-76
2022/06/26 13:03:00;;;;;;;3.00;1.90;;;;;;;;;;4987971;28;20229;-75
2022/06/26 13:05:27;;;;;;;2.53;1.90;;;;;;;;;;4986241;28;20319;-73
2022/06/26 13:07:55;;;;;;;5.63;1.80;;;;;;;;;;4987489;28;20213;-75
2022/06/26 13:10:23;;;;;;;3.63;1.83;;;;;;;;;;4986563;28;20230;-74
2022/06/26 13:12:50;;;;;;;3.53;2.07;;;;;;;;;;4984471;28;20644;-76
2022/06/26 13:15:18;;;;;;;3.70;2.00;;;;;;;;;;4984182;28;20783;-74
2022/06/26 13:17:45;;;;;;;3.03;1.80;;;;;;;;;;4984829;28;20220;-75
2022/06/26 13:20:12;;;;;;;4.30;1.80;;;;;;;;;;4980281;28;20314;-75
2022/06/26 13:22:39;;;;;;;2.47;2.00;;;;;;;;;;4980206;28;20596;-75
2022/06/26 13:25:07;;;;;;;3.33;2.30;;;;;;;;;;4983816;28;20229;-73
2022/06/26 13:27:36;;;;;;;3.97;2.10;;;;;;;;;;4988022;28;20289;-75
2022/06/26 13:30:03;;;;;;;4.87;2.03;;;;;;;;;;4984892;28;20225;-76
2022/06/26 13:32:30;;;;;;;3.07;2.00;;;;;;;;;;4984440;28;20517;-76
2022/06/26 13:34:58;;;;;;;2.10;1.80;;;;;;;;;;4980118;28;20737;-76
2022/06/26 13:37:25;;;;;;;2.47;2.10;;;;;;;;;;4985296;28;20284;-76
2022/06/26 13:39:52;;;;;;;3.07;2.20;;;;;;;;;;4986521;28;20200;-76
2022/06/26 13:42:19;;;;;;;2.80;2.07;;;;;;;;;;4985455;28;20205;-75
2022/06/26 13:44:48;;;;;;;3.30;2.30;;;;;;;;;;4983673;28;20367;-74
2022/06/26 13:47:16;;;;;;;3.83;1.87;;;;;;;;;;4986042;28;20658;-76
2022/06/26 13:49:45;;;;;;;2.03;1.87;;;;;;;;;;4989997;28;20215;-75
2022/06/26 13:52:12;;;;;;;2.97;2.03;;;;;;;;;;4984831;28;20296;-75
2022/06/26 13:54:39;;;;;;;5.70;2.10;;;;;;;;;;4978786;28;20259;-75
2022/06/26 13:57:07;;;;;;;4.50;2.27;;;;;;;;;;4983685;28;20711;-76
2022/06/26 13:59:34;;;;;;;3.07;2.20;;;;;;;;;;4980834;28;20693;-75
2022/06/26 14:02:03;;;;;;;3.80;1.90;;;;;;;;;;4980262;28;20208;-75
2022/06/26 14:04:30;;;;;;;2.10;1.90;;;;;;;;;;4986873;28;20319;-76
2022/06/26 14:06:58;;;;;;;2.10;1.90;;;;;;;;;;4985549;28;20212;-74
2022/06/26 14:09:25;;;;;;;7.97;1.80;;;;;;;;;;4984623;28;20209;-75
2022/06/26 14:11:52;;;;;;;2.37;1.80;;;;;;;;;;4984146;28;20248;-75
2022/06/26 14:14:19;;;;;;;2.80;2.00;;;;;;;;;;4982255;28;20217;-75
2022/06/26 14:16:46;;;;;;;3.20;1.80;;;;;;;;;;4982342;28;20219;-72
2022/06/26 14:19:15;;;;;;;3.73;1.77;;;;;;;;;;4985773;28;20300;-75
2022/06/26 14:21:42;;;;;;;2.93;1.90;;;;;;;;;;4981161;28;20288;-76
2022/06/26 14:26:53;;;;;;;3.20;1.83;;;;;;;;;;4964548;28;20217;-74
2022/06/26 14:29:20;;;;;;;6.27;1.90;;;;;;;;;;4983741;28;20207;-74
2022/06/26 14:31:47;;;;;;;3.17;1.77;;;;;;;;;;4987837;28;20256;-72
2022/06/26 14:34:16;;;;;;;3.83;1.80;;;;;;;;;;4984371;28;20225;-75
2022/06/26 14:36:43;;;;;;;3.47;1.80;;;;;;;;;;4985968;28;20232;-76
2022/06/26 14:39:10;;;;;;;4.63;1.70;;;;;;;;;;4983730;28;20209;-74
2022/06/26 14:41:37;;;;;;;2.40;1.67;;;;;;;;;;4984851;28;20590;-75
2022/06/26 14:44:05;;;;;;;8.33;2.10;;;;;;;;;;4981426;28;20229;-76
2022/06/26 14:46:35;;;;;;;2.90;1.60;;;;;;;;;;4982106;28;20212;-76
2022/06/26 14:49:02;;;;;;;2.77;1.80;;;;;;;;;;4983314;28;20577;-76
2022/06/26 14:51:32;;;;;;;3.63;1.60;;;;;;;;;;4984643;28;20224;-75
2022/06/26 14:53:59;;;;;;;2.80;1.90;;;;;;;;;;4981650;28;20231;-75
2022/06/26 14:56:26;;;;;;;5.00;1.60;;;;;;;;;;4983169;28;20660;-75
2022/06/26 14:58:53;;;;;;;2.03;1.83;;;;;;;;;;4985628;28;20646;-74
2022/06/26 15:01:20;;;;;;;4.13;1.80;;;;;;;;;;4984138;28;20255;-74
2022/06/26 15:03:48;;;;;;;2.70;1.90;;;;;;;;;;4982886;28;20320;-74